createdAt,value
2023-12-11T00:00:32.555Z,17.13
2023-12-11T00:01:37.613Z,17.14
2023-12-11T00:02:45.936Z,17.13
2023-12-11T00:03:51.773Z,17.14
2023-12-11T00:04:58.799Z,17.13
2023-12-11T00:06:04.014Z,17.13
2023-12-11T00:07:10.290Z,17.14
2023-12-11T00:08:14.323Z,17.15
2023-12-11T00:09:21.026Z,17.14
2023-12-11T00:10:24.927Z,17.15
2023-12-11T00:11:31.424Z,17.15
2023-12-11T00:12:38.012Z,17.15
2023-12-11T00:13:47.327Z,17.14
2023-12-11T00:14:50.666Z,17.11
2023-12-11T00:15:57.211Z,17.13
2023-12-11T00:17:01.153Z,17.13
2023-12-11T00:18:07.852Z,17.13
2023-12-11T00:19:12.534Z,17.12
2023-12-11T00:20:19.393Z,17.12
2023-12-11T00:21:23.549Z,17.13
2023-12-11T00:22:30.059Z,17.12
2023-12-11T00:23:34.068Z,17.12
2023-12-11T00:24:40.532Z,17.13
2023-12-11T00:25:47.462Z,17.13
2023-12-11T00:26:53.921Z,17.13
2023-12-11T00:27:59.588Z,17.12
2023-12-11T00:29:09.089Z,17.12
2023-12-11T00:30:15.373Z,17.12
2023-12-11T00:31:22.156Z,17.12
2023-12-11T00:32:26.195Z,17.12
2023-12-11T00:33:32.866Z,17.13
2023-12-11T00:34:37.229Z,17.12
2023-12-11T00:35:44.797Z,17.13
2023-12-11T00:36:49.018Z,17.13
2023-12-11T00:37:55.650Z,17.14
2023-12-11T00:39:00.117Z,17.13
2023-12-11T00:40:08.532Z,17.13
2023-12-11T00:41:12.408Z,17.12
2023-12-11T00:42:19.295Z,17.12
2023-12-11T00:43:23.218Z,17.12
2023-12-11T00:44:32.304Z,17.12
2023-12-11T00:45:36.255Z,17.13
2023-12-11T00:46:42.997Z,17.12
2023-12-11T00:47:46.945Z,17.12
2023-12-11T00:48:54.955Z,17.12
2023-12-11T00:49:59.349Z,17.13
2023-12-11T00:51:06.189Z,17.12
2023-12-11T00:52:10.347Z,17.13
2023-12-11T00:53:17.017Z,17.12
2023-12-11T00:54:20.425Z,17.12
2023-12-11T00:55:27.364Z,17.11
2023-12-11T00:56:31.434Z,17.11
2023-12-11T00:57:37.898Z,17.11
2023-12-11T00:58:42.121Z,17.12
2023-12-11T00:59:51.198Z,17.10
2023-12-11T01:00:55.145Z,17.11
2023-12-11T01:02:01.718Z,17.12
2023-12-11T01:03:05.583Z,17.11
2023-12-11T01:04:12.471Z,17.11
2023-12-11T01:05:16.447Z,17.11
2023-12-11T01:06:22.927Z,17.11
2023-12-11T01:07:26.907Z,17.12
2023-12-11T01:08:34.931Z,17.13
2023-12-11T01:09:38.820Z,17.13
2023-12-11T01:10:45.342Z,17.13
2023-12-11T01:11:49.171Z,17.13
2023-12-11T01:12:55.686Z,17.12
2023-12-11T01:13:59.610Z,17.12
2023-12-11T01:15:10.459Z,17.13
2023-12-11T01:16:14.580Z,17.12
2023-12-11T01:17:37.691Z,17.13
2023-12-11T01:18:44.528Z,17.13
2023-12-11T01:19:51.053Z,17.13
2023-12-11T01:20:55.361Z,17.13
2023-12-11T01:22:01.857Z,17.14
2023-12-11T01:23:06.203Z,17.14
2023-12-11T01:24:12.612Z,17.14
2023-12-11T01:25:16.529Z,17.14
2023-12-11T01:26:22.948Z,17.15
2023-12-11T01:27:26.111Z,17.15
2023-12-11T01:28:30.056Z,17.15
2023-12-11T01:29:36.532Z,17.14
2023-12-11T01:30:43.052Z,17.14
2023-12-11T01:31:49.536Z,17.14
2023-12-11T01:32:53.376Z,17.16
2023-12-11T01:33:59.901Z,17.15
2023-12-11T01:35:04.093Z,17.16
2023-12-11T01:36:09.640Z,17.16
2023-12-11T01:37:16.070Z,17.16
2023-12-11T01:38:20.073Z,17.18
2023-12-11T01:39:26.538Z,17.16
2023-12-11T01:40:30.395Z,17.16
2023-12-11T01:41:36.833Z,17.16
2023-12-11T01:42:40.698Z,17.16
2023-12-11T01:43:55.657Z,17.15
2023-12-11T01:44:59.517Z,17.15
2023-12-11T01:46:13.831Z,17.15
2023-12-11T01:47:18.261Z,17.14
2023-12-11T01:48:22.355Z,17.14
2023-12-11T01:49:29.281Z,17.15
2023-12-11T01:50:33.597Z,17.15
2023-12-11T01:51:40.707Z,17.15
2023-12-11T01:52:45.056Z,17.14
2023-12-11T01:53:54.807Z,17.14
2023-12-11T01:54:58.749Z,17.13
2023-12-11T01:56:05.115Z,17.12
2023-12-11T01:57:10.048Z,17.14
2023-12-11T01:58:17.669Z,17.14
2023-12-11T01:59:21.910Z,17.15
2023-12-11T02:00:28.779Z,17.14
2023-12-11T02:01:37.907Z,17.13
2023-12-11T02:02:45.658Z,17.11
2023-12-11T02:03:52.283Z,17.13
2023-12-11T02:04:59.045Z,17.13
2023-12-11T02:06:02.925Z,17.12
2023-12-11T02:07:09.765Z,17.12
2023-12-11T02:08:15.646Z,17.12
2023-12-11T02:09:22.232Z,17.12
2023-12-11T02:10:26.318Z,17.12
2023-12-11T02:11:32.751Z,17.12
2023-12-11T02:12:37.084Z,17.13
2023-12-11T02:13:44.417Z,17.12
2023-12-11T02:14:48.248Z,17.11
2023-12-11T02:15:55.068Z,17.11
2023-12-11T02:17:01.699Z,17.12
2023-12-11T02:18:08.624Z,17.12
2023-12-11T02:19:12.598Z,17.12
2023-12-11T02:20:19.159Z,17.12
2023-12-11T02:21:23.411Z,17.10
2023-12-11T02:22:30.805Z,17.11
2023-12-11T02:23:48.335Z,17.11
2023-12-11T02:25:02.971Z,17.12
2023-12-11T02:26:16.341Z,17.11
2023-12-11T02:27:23.899Z,17.11
2023-12-11T02:28:27.764Z,17.11
2023-12-11T02:29:34.225Z,17.12
2023-12-11T02:30:38.979Z,17.12
2023-12-11T02:31:45.579Z,17.10
2023-12-11T02:32:52.430Z,17.10
2023-12-11T02:33:59.010Z,17.11
2023-12-11T02:35:02.927Z,17.10
2023-12-11T02:36:10.700Z,17.11
2023-12-11T02:37:14.638Z,17.10
2023-12-11T02:38:20.758Z,17.10
2023-12-11T02:39:24.330Z,17.11
2023-12-11T02:40:30.802Z,17.11
2023-12-11T02:41:37.240Z,17.12
2023-12-11T02:42:50.988Z,17.11
2023-12-11T02:43:54.017Z,17.11
2023-12-11T02:45:00.473Z,17.12
2023-12-11T02:46:05.252Z,17.11
2023-12-11T02:47:10.969Z,17.12
2023-12-11T02:48:15.731Z,17.13
2023-12-11T02:49:22.404Z,17.12
2023-12-11T02:50:26.308Z,17.12
2023-12-11T02:51:32.823Z,17.12
2023-12-11T02:52:36.727Z,17.13
2023-12-11T02:53:43.148Z,17.12
2023-12-11T02:54:46.948Z,17.13
2023-12-11T02:55:53.408Z,17.12
2023-12-11T02:56:59.860Z,17.12
2023-12-11T02:58:08.062Z,17.13
2023-12-11T02:59:12.049Z,17.13
2023-12-11T03:00:19.156Z,17.13
2023-12-11T03:01:23.084Z,17.15
2023-12-11T03:02:29.582Z,17.15
2023-12-11T03:03:33.664Z,17.15
2023-12-11T03:04:40.243Z,17.14
2023-12-11T03:05:44.245Z,17.14
2023-12-11T03:06:50.782Z,17.15
2023-12-11T03:07:54.740Z,17.14
2023-12-11T03:09:03.889Z,17.14
2023-12-11T03:10:09.882Z,17.15
2023-12-11T03:11:16.442Z,17.14
2023-12-11T03:12:22.982Z,17.15
2023-12-11T03:13:29.446Z,17.17
2023-12-11T03:14:33.388Z,17.17
2023-12-11T03:15:39.837Z,17.17
2023-12-11T03:16:48.097Z,17.16
2023-12-11T03:17:54.585Z,17.15
2023-12-11T03:18:58.521Z,17.16
2023-12-11T03:20:06.772Z,17.15
2023-12-11T03:21:10.653Z,17.16
2023-12-11T03:22:17.215Z,17.16
2023-12-11T03:23:21.187Z,17.17
2023-12-11T03:24:27.630Z,17.16
2023-12-11T03:25:31.480Z,17.15
2023-12-11T03:26:37.930Z,17.16
2023-12-11T03:27:44.585Z,17.15
2023-12-11T03:28:51.040Z,17.17
2023-12-11T03:29:54.780Z,17.17
2023-12-11T03:31:01.272Z,17.16
2023-12-11T03:32:06.333Z,17.16
2023-12-11T03:33:12.984Z,17.15
2023-12-11T03:34:17.062Z,17.16
2023-12-11T03:35:23.537Z,17.14
2023-12-11T03:36:27.359Z,17.14
2023-12-11T03:37:32.964Z,17.15
2023-12-11T03:38:37.038Z,17.15
2023-12-11T03:39:40.291Z,17.15
2023-12-11T03:40:50.182Z,17.16
2023-12-11T03:41:54.112Z,17.15
2023-12-11T03:43:03.294Z,17.16
2023-12-11T03:44:07.156Z,17.16
2023-12-11T03:45:13.874Z,17.17
2023-12-11T03:46:17.774Z,17.17
2023-12-11T03:47:25.448Z,17.17
2023-12-11T03:48:28.852Z,17.17
2023-12-11T03:49:35.514Z,17.16
2023-12-11T03:50:39.401Z,17.17
2023-12-11T03:51:45.923Z,17.16
2023-12-11T03:52:49.786Z,17.17
2023-12-11T03:53:56.285Z,17.17
2023-12-11T03:55:00.273Z,17.16
2023-12-11T03:56:07.517Z,17.17
2023-12-11T03:57:11.384Z,17.16
2023-12-11T03:58:20.530Z,17.18
2023-12-11T03:59:24.940Z,17.18
2023-12-11T04:00:31.482Z,17.16
2023-12-11T04:01:35.586Z,17.17
2023-12-11T04:02:42.213Z,17.18
2023-12-11T04:03:46.198Z,17.18
2023-12-11T04:04:49.665Z,17.19
2023-12-11T04:05:56.271Z,17.18
2023-12-11T04:07:00.573Z,17.20
2023-12-11T04:08:07.426Z,17.19
2023-12-11T04:09:11.248Z,17.19
2023-12-11T04:10:17.948Z,17.20
2023-12-11T04:11:21.939Z,17.21
2023-12-11T04:12:28.612Z,17.21
2023-12-11T04:13:35.043Z,17.20
2023-12-11T04:14:41.540Z,17.21
2023-12-11T04:15:45.809Z,17.21
2023-12-11T04:16:52.224Z,17.21
2023-12-11T04:17:56.081Z,17.19
2023-12-11T04:19:02.675Z,17.21
2023-12-11T04:20:08.088Z,17.21
2023-12-11T04:21:14.596Z,17.21
2023-12-11T04:22:18.477Z,17.22
2023-12-11T04:23:24.948Z,17.22
2023-12-11T04:24:28.787Z,17.22
2023-12-11T04:25:35.346Z,17.22
2023-12-11T04:26:39.251Z,17.23
2023-12-11T04:27:45.705Z,17.23
2023-12-11T04:28:52.121Z,17.23
2023-12-11T04:29:58.575Z,17.24
2023-12-11T04:31:02.455Z,17.22
2023-12-11T04:32:10.019Z,17.22
2023-12-11T04:33:14.052Z,17.24
2023-12-11T04:34:20.575Z,17.24
2023-12-11T04:35:24.417Z,17.24
2023-12-11T04:36:30.873Z,17.25
2023-12-11T04:37:34.716Z,17.23
2023-12-11T04:38:41.158Z,17.24
2023-12-11T04:39:45.437Z,17.24
2023-12-11T04:40:49.279Z,17.25
2023-12-11T04:41:55.700Z,17.23
2023-12-11T04:42:59.591Z,17.23
2023-12-11T04:44:08.714Z,17.24
2023-12-11T04:45:12.729Z,17.23
2023-12-11T04:46:19.255Z,17.22
2023-12-11T04:47:23.201Z,17.22
2023-12-11T04:48:27.294Z,17.21
2023-12-11T04:49:33.978Z,17.22
2023-12-11T04:50:37.895Z,17.22
2023-12-11T04:51:44.378Z,17.23
2023-12-11T04:52:48.669Z,17.23
2023-12-11T04:53:51.629Z,17.23
2023-12-11T04:54:58.821Z,17.23
2023-12-11T04:56:07.906Z,17.24
2023-12-11T04:57:14.124Z,17.23
2023-12-11T04:58:17.525Z,17.23
2023-12-11T04:59:26.560Z,17.24
2023-12-11T05:00:30.512Z,17.24
2023-12-11T05:01:37.060Z,17.25
2023-12-11T05:02:40.951Z,17.22
2023-12-11T05:03:47.972Z,17.24
2023-12-11T05:04:51.882Z,17.22
2023-12-11T05:05:58.356Z,17.23
2023-12-11T05:07:02.200Z,17.23
2023-12-11T05:08:08.850Z,17.25
2023-12-11T05:09:11.962Z,17.24
2023-12-11T05:10:18.785Z,17.25
2023-12-11T05:11:23.346Z,17.24
2023-12-11T05:12:29.773Z,17.25
2023-12-11T05:13:33.624Z,17.25
2023-12-11T05:14:42.835Z,17.26
2023-12-11T05:15:46.728Z,17.25
2023-12-11T05:16:53.406Z,17.28
2023-12-11T05:17:57.369Z,17.28
2023-12-11T05:19:03.854Z,17.28
2023-12-11T05:20:10.205Z,17.27
2023-12-11T05:21:16.665Z,17.27
2023-12-11T05:22:20.559Z,17.28
2023-12-11T05:23:27.010Z,17.28
2023-12-11T05:24:30.868Z,17.28
2023-12-11T05:25:37.329Z,17.26
2023-12-11T05:26:41.426Z,17.25
2023-12-11T05:27:47.883Z,17.27
2023-12-11T05:28:52.150Z,17.26
2023-12-11T05:30:01.191Z,17.27
2023-12-11T05:31:05.638Z,17.27
2023-12-11T05:32:14.140Z,17.25
2023-12-11T05:33:18.120Z,17.27
2023-12-11T05:34:24.713Z,17.28
2023-12-11T05:35:28.654Z,17.27
2023-12-11T05:36:35.340Z,17.27
2023-12-11T05:37:39.389Z,17.26
2023-12-11T05:38:46.007Z,17.28
2023-12-11T05:39:57.802Z,17.26
2023-12-11T05:41:16.461Z,17.27
2023-12-11T05:42:20.314Z,17.28
2023-12-11T05:43:26.712Z,17.28
2023-12-11T05:44:30.630Z,17.29
2023-12-11T05:45:39.808Z,17.28
2023-12-11T05:46:43.731Z,17.28
2023-12-11T05:47:50.435Z,17.29
2023-12-11T05:48:54.362Z,17.28
2023-12-11T05:49:58.434Z,17.30
2023-12-11T05:51:04.960Z,17.29
2023-12-11T05:52:08.076Z,17.29
2023-12-11T05:53:14.662Z,17.30
2023-12-11T05:54:18.466Z,17.31
2023-12-11T05:55:24.916Z,17.32
2023-12-11T05:56:28.841Z,17.32
2023-12-11T05:57:35.442Z,17.31
2023-12-11T05:58:39.556Z,17.31
2023-12-11T05:59:48.584Z,17.32
2023-12-11T06:00:55.145Z,17.32
2023-12-11T06:02:01.728Z,17.31
2023-12-11T06:03:05.716Z,17.30
2023-12-11T06:04:12.239Z,17.31
2023-12-11T06:05:16.529Z,17.31
2023-12-11T06:06:22.957Z,17.30
2023-12-11T06:07:26.819Z,17.32
2023-12-11T06:08:34.145Z,17.31
2023-12-11T06:09:38.389Z,17.30
2023-12-11T06:10:44.821Z,17.30
2023-12-11T06:11:48.693Z,17.29
2023-12-11T06:12:55.175Z,17.30
2023-12-11T06:13:59.068Z,17.30
2023-12-11T06:15:05.639Z,17.29
2023-12-11T06:16:12.653Z,17.29
2023-12-11T06:17:19.240Z,17.29
2023-12-11T06:18:23.187Z,17.28
2023-12-11T06:19:29.762Z,17.28
2023-12-11T06:20:33.678Z,17.29
2023-12-11T06:21:42.281Z,17.30
2023-12-11T06:22:48.386Z,17.29
2023-12-11T06:23:55.155Z,17.29
2023-12-11T06:24:59.027Z,17.30
2023-12-11T06:26:04.543Z,17.29
2023-12-11T06:27:08.748Z,17.30
2023-12-11T06:28:15.298Z,17.30
2023-12-11T06:29:19.185Z,17.30
2023-12-11T06:30:24.910Z,17.29
2023-12-11T06:31:32.014Z,17.28
2023-12-11T06:32:41.760Z,17.29
2023-12-11T06:33:45.941Z,17.29
2023-12-11T06:34:52.780Z,17.30
2023-12-11T06:35:56.672Z,17.31
2023-12-11T06:37:03.411Z,17.31
2023-12-11T06:38:06.868Z,17.31
2023-12-11T06:39:13.358Z,17.31
2023-12-11T06:40:17.587Z,17.31
2023-12-11T06:41:24.545Z,17.30
2023-12-11T06:42:28.410Z,17.32
2023-12-11T06:43:36.892Z,17.32
2023-12-11T06:44:40.838Z,17.31
2023-12-11T06:45:47.555Z,17.30
2023-12-11T06:46:54.783Z,17.30
2023-12-11T06:48:01.430Z,17.31
2023-12-11T06:49:05.381Z,17.31
2023-12-11T06:50:13.984Z,17.31
2023-12-11T06:51:18.294Z,17.31
2023-12-11T06:52:24.778Z,17.30
2023-12-11T06:53:28.718Z,17.31
2023-12-11T06:54:35.274Z,17.31
2023-12-11T06:55:39.226Z,17.31
2023-12-11T06:56:45.979Z,17.31
2023-12-11T06:57:49.857Z,17.30
2023-12-11T06:58:56.372Z,17.32
2023-12-11T07:00:03.524Z,17.31
2023-12-11T07:01:13.674Z,17.31
2023-12-11T07:02:20.307Z,17.30
2023-12-11T07:03:27.223Z,17.31
2023-12-11T07:04:31.347Z,17.31
2023-12-11T07:05:38.163Z,17.32
2023-12-11T07:06:42.129Z,17.31
2023-12-11T07:07:48.584Z,17.31
2023-12-11T07:08:52.493Z,17.30
2023-12-11T07:10:05.140Z,17.31
2023-12-11T07:11:09.164Z,17.31
2023-12-11T07:12:15.656Z,17.30
2023-12-11T07:13:19.996Z,17.31
2023-12-11T07:14:26.923Z,17.31
2023-12-11T07:15:31.239Z,17.31
2023-12-11T07:16:38.856Z,17.31
2023-12-11T07:17:45.335Z,17.33
2023-12-11T07:18:51.888Z,17.34
2023-12-11T07:19:55.817Z,17.33
2023-12-11T07:21:02.339Z,17.34
2023-12-11T07:22:06.271Z,17.34
2023-12-11T07:23:14.117Z,17.35
2023-12-11T07:24:17.984Z,17.35
2023-12-11T07:25:24.508Z,17.36
2023-12-11T07:26:28.422Z,17.35
2023-12-11T07:27:35.404Z,17.37
2023-12-11T07:28:40.166Z,17.35
2023-12-11T07:29:46.664Z,17.35
2023-12-11T07:30:50.657Z,17.35
2023-12-11T07:31:57.121Z,17.35
2023-12-11T07:33:04.055Z,17.35
2023-12-11T07:34:10.701Z,17.35
2023-12-11T07:35:14.805Z,17.35
2023-12-11T07:36:22.046Z,17.35
2023-12-11T07:37:25.916Z,17.33
2023-12-11T07:38:32.632Z,17.34
2023-12-11T07:39:36.524Z,17.34
2023-12-11T07:40:43.031Z,17.35
2023-12-11T07:41:46.918Z,17.35
2023-12-11T07:42:53.803Z,17.35
2023-12-11T07:43:57.654Z,17.34
2023-12-11T07:45:06.353Z,17.35
2023-12-11T07:46:17.605Z,17.34
2023-12-11T07:47:24.203Z,17.34
2023-12-11T07:48:32.091Z,17.34
2023-12-11T07:49:38.903Z,17.34
2023-12-11T07:50:43.124Z,17.36
2023-12-11T07:51:49.616Z,17.36
2023-12-11T07:52:53.712Z,17.35
2023-12-11T07:54:00.551Z,17.37
2023-12-11T07:55:05.768Z,17.38
2023-12-11T07:56:21.745Z,17.39
2023-12-11T07:57:26.597Z,17.42
2023-12-11T07:58:33.419Z,17.44
2023-12-11T07:59:37.262Z,17.45
2023-12-11T08:00:43.807Z,17.45
2023-12-11T08:01:49.357Z,17.48
2023-12-11T08:02:55.900Z,17.48
2023-12-11T08:04:02.842Z,17.47
2023-12-11T08:05:11.396Z,17.48
2023-12-11T08:06:15.646Z,17.48
2023-12-11T08:07:22.588Z,17.50
2023-12-11T08:08:26.492Z,17.51
2023-12-11T08:09:32.654Z,17.52
2023-12-11T08:10:36.459Z,17.51
2023-12-11T08:11:42.921Z,17.50
2023-12-11T08:12:52.175Z,17.50
2023-12-11T08:13:59.257Z,17.53
2023-12-11T08:15:04.408Z,17.53
2023-12-11T08:16:11.480Z,17.53
2023-12-11T08:17:15.263Z,17.53
2023-12-11T08:18:21.774Z,17.54
2023-12-11T08:19:28.414Z,17.52
2023-12-11T08:20:35.602Z,17.51
2023-12-11T08:21:39.560Z,17.53
2023-12-11T08:22:46.051Z,17.52
2023-12-11T08:23:50.123Z,17.52
2023-12-11T08:24:57.143Z,17.53
2023-12-11T08:26:01.153Z,17.54
2023-12-11T08:27:09.259Z,17.55
2023-12-11T08:28:13.286Z,17.56
2023-12-11T08:29:20.003Z,17.56
2023-12-11T08:30:23.834Z,17.55
2023-12-11T08:31:30.253Z,17.57
2023-12-11T08:32:34.145Z,17.58
2023-12-11T08:33:40.737Z,17.61
2023-12-11T08:34:47.334Z,17.67
2023-12-11T08:35:55.056Z,17.76
2023-12-11T08:36:59.549Z,17.79
2023-12-11T08:38:06.089Z,17.82
2023-12-11T08:39:10.863Z,17.80
2023-12-11T08:40:17.676Z,17.81
2023-12-11T08:41:21.592Z,17.81
2023-12-11T08:42:28.339Z,17.80
2023-12-11T08:43:32.374Z,17.79
2023-12-11T08:44:38.806Z,17.79
2023-12-11T08:45:42.917Z,17.78
2023-12-11T08:46:46.802Z,17.79
2023-12-11T08:47:53.319Z,17.80
2023-12-11T08:48:57.368Z,17.80
2023-12-11T08:50:06.988Z,17.79
2023-12-11T08:51:10.887Z,17.79
2023-12-11T08:52:17.376Z,17.79
2023-12-11T08:53:21.392Z,17.77
2023-12-11T08:54:27.826Z,17.78
2023-12-11T08:55:32.166Z,17.77
2023-12-11T08:56:38.706Z,17.77
2023-12-11T08:57:44.087Z,17.76
2023-12-11T08:58:50.700Z,17.75
2023-12-11T08:59:54.614Z,17.74
2023-12-11T09:00:58.648Z,17.77
2023-12-11T09:02:05.326Z,17.76
2023-12-11T09:03:09.358Z,17.77
2023-12-11T09:04:15.991Z,17.76
2023-12-11T09:05:22.613Z,17.78
2023-12-11T09:06:29.178Z,17.76
2023-12-11T09:07:33.399Z,17.77
2023-12-11T09:08:40.095Z,17.80
2023-12-11T09:09:43.961Z,17.83
2023-12-11T09:10:50.467Z,17.85
2023-12-11T09:11:54.371Z,17.88
2023-12-11T09:13:01.176Z,17.90
2023-12-11T09:14:05.096Z,17.93
2023-12-11T09:15:13.308Z,17.94
2023-12-11T09:16:17.169Z,17.98
2023-12-11T09:17:23.623Z,17.99
2023-12-11T09:18:27.811Z,17.99
2023-12-11T09:19:44.195Z,18.01
2023-12-11T09:20:55.506Z,18.03
2023-12-11T09:22:02.079Z,18.05
2023-12-11T09:23:05.988Z,18.05
2023-12-11T09:24:11.394Z,18.05
2023-12-11T09:25:18.111Z,18.08
2023-12-11T09:26:21.956Z,18.08
2023-12-11T09:27:28.630Z,18.10
2023-12-11T09:28:37.933Z,18.04
2023-12-11T09:29:59.836Z,18.01
2023-12-11T09:31:14.876Z,18.00
2023-12-11T09:32:29.874Z,18.00
2023-12-11T09:33:45.036Z,18.00
2023-12-11T09:34:56.800Z,18.00
2023-12-11T09:36:17.368Z,18.03
2023-12-11T09:37:37.841Z,18.05
2023-12-11T09:38:57.056Z,18.09
2023-12-11T09:40:17.844Z,18.10
2023-12-11T09:41:36.374Z,18.14
2023-12-11T09:42:57.508Z,18.17
2023-12-11T09:44:15.418Z,18.18
2023-12-11T09:45:36.616Z,18.21
2023-12-11T09:47:09.137Z,18.26
2023-12-11T09:48:20.874Z,18.28
2023-12-11T09:49:27.889Z,18.28
2023-12-11T09:50:36.522Z,18.31
2023-12-11T09:51:43.332Z,18.35
2023-12-11T09:52:47.288Z,18.41
2023-12-11T09:53:57.519Z,18.42
2023-12-11T09:55:00.631Z,18.45
2023-12-11T09:56:09.077Z,18.46
2023-12-11T09:57:16.247Z,18.50
2023-12-11T09:58:26.377Z,18.52
2023-12-11T09:59:31.659Z,18.53
2023-12-11T10:00:40.027Z,18.57
2023-12-11T10:01:44.087Z,18.59
2023-12-11T10:02:54.958Z,18.61
2023-12-11T10:03:59.021Z,18.65
2023-12-11T10:05:09.146Z,18.66
2023-12-11T10:06:12.841Z,18.69
2023-12-11T10:07:22.718Z,18.70
2023-12-11T10:08:26.809Z,18.73
2023-12-11T10:09:35.556Z,18.74
2023-12-11T10:10:40.698Z,18.77
2023-12-11T10:12:04.291Z,18.80
2023-12-11T10:13:08.498Z,18.81
2023-12-11T10:14:16.511Z,18.83
2023-12-11T10:15:21.746Z,18.85
2023-12-11T10:16:30.966Z,18.87
2023-12-11T10:17:37.602Z,18.89
2023-12-11T10:18:49.947Z,18.92
2023-12-11T10:19:56.858Z,18.94
2023-12-11T10:21:01.284Z,18.96
2023-12-11T10:22:07.886Z,18.96
2023-12-11T10:23:16.660Z,18.98
2023-12-11T10:24:23.859Z,19.00
2023-12-11T10:25:29.295Z,19.03
2023-12-11T10:26:36.880Z,19.03
2023-12-11T10:27:41.204Z,19.06
2023-12-11T10:28:47.776Z,19.06
2023-12-11T10:30:09.237Z,19.06
2023-12-11T10:31:15.734Z,19.08
2023-12-11T10:32:29.362Z,19.10
2023-12-11T10:33:36.460Z,19.11
2023-12-11T10:34:47.551Z,19.11
2023-12-11T10:35:52.342Z,19.12
2023-12-11T10:36:58.972Z,19.13
2023-12-11T10:38:03.258Z,19.15
2023-12-11T10:39:15.183Z,19.15
2023-12-11T10:40:19.446Z,19.16
2023-12-11T10:41:30.075Z,19.16
2023-12-11T10:42:36.300Z,19.18
2023-12-11T10:44:55.604Z,19.20
2023-12-11T10:46:02.598Z,19.20
2023-12-11T10:47:06.816Z,19.22
2023-12-11T10:48:13.125Z,19.19
2023-12-11T10:49:18.459Z,19.15
2023-12-11T10:50:24.927Z,19.14
2023-12-11T10:51:30.405Z,19.15
2023-12-11T10:52:37.777Z,19.15
2023-12-11T10:53:41.557Z,19.16
2023-12-11T10:54:50.682Z,19.17
2023-12-11T10:55:58.451Z,19.15
2023-12-11T10:57:03.818Z,19.13
2023-12-11T10:58:12.098Z,19.12
2023-12-11T10:59:16.811Z,19.12
2023-12-11T11:00:23.999Z,19.11
2023-12-11T11:01:28.870Z,19.11
2023-12-11T11:02:38.257Z,19.13
2023-12-11T11:03:42.507Z,19.10
2023-12-11T11:04:51.714Z,19.08
2023-12-11T11:05:56.935Z,19.06
2023-12-11T11:07:11.773Z,19.07
2023-12-11T11:08:34.596Z,19.06
2023-12-11T11:10:01.413Z,19.04
2023-12-11T11:11:25.260Z,19.02
2023-12-11T11:12:43.988Z,19.02
2023-12-11T11:14:26.065Z,19.02
2023-12-11T11:15:32.733Z,19.04
2023-12-11T11:16:53.543Z,19.03
2023-12-11T11:18:05.406Z,19.02
2023-12-11T11:19:10.318Z,19.03
2023-12-11T11:20:15.441Z,19.03
2023-12-11T11:21:21.156Z,19.02
2023-12-11T11:22:32.481Z,19.06
2023-12-11T11:23:47.087Z,19.08
2023-12-11T11:24:53.659Z,19.11
2023-12-11T11:26:01.202Z,19.14
2023-12-11T11:27:25.597Z,19.16
2023-12-11T11:28:42.837Z,19.15
2023-12-11T11:29:47.503Z,19.18
2023-12-11T11:30:52.972Z,19.22
2023-12-11T11:32:01.492Z,19.24
2023-12-11T11:33:06.362Z,19.24
2023-12-11T11:34:09.922Z,19.27
2023-12-11T11:35:55.631Z,19.28
2023-12-11T11:36:59.467Z,19.30
2023-12-11T11:38:03.362Z,19.29
2023-12-11T11:39:09.793Z,19.32
2023-12-11T11:40:33.747Z,19.34
2023-12-11T11:41:40.338Z,19.37
2023-12-11T11:42:43.804Z,19.41
2023-12-11T11:43:57.974Z,19.47
2023-12-11T11:45:09.234Z,19.46
2023-12-11T11:46:13.167Z,19.45
2023-12-11T11:47:21.777Z,19.42
2023-12-11T11:48:42.885Z,19.42
2023-12-11T11:49:49.560Z,19.41
2023-12-11T11:50:55.490Z,19.42
2023-12-11T11:52:07.053Z,19.42
2023-12-11T11:53:15.234Z,19.41
2023-12-11T11:54:25.974Z,19.40
2023-12-11T11:55:32.495Z,19.39
2023-12-11T11:56:49.083Z,19.39
2023-12-11T11:57:53.086Z,19.38
2023-12-11T11:59:06.791Z,19.37
2023-12-11T12:00:12.178Z,19.36
2023-12-11T12:01:18.682Z,19.29
2023-12-11T12:02:23.604Z,19.31
2023-12-11T12:03:27.447Z,19.33
2023-12-11T12:04:37.037Z,19.33
2023-12-11T12:05:56.224Z,19.33
2023-12-11T12:07:05.739Z,19.34
2023-12-11T12:08:09.982Z,19.34
2023-12-11T12:09:21.520Z,19.37
2023-12-11T12:10:26.049Z,19.36
2023-12-11T12:11:38.236Z,19.37
2023-12-11T12:12:42.115Z,19.34
2023-12-11T12:13:48.753Z,19.37
2023-12-11T12:15:01.990Z,19.38
2023-12-11T12:16:09.820Z,19.36
2023-12-11T12:17:13.778Z,19.35
2023-12-11T12:18:20.254Z,19.38
2023-12-11T12:19:35.082Z,19.38
2023-12-11T12:20:42.140Z,19.39
2023-12-11T12:21:55.711Z,19.42
2023-12-11T12:23:03.001Z,19.41
2023-12-11T12:24:07.644Z,19.43
2023-12-11T12:25:18.895Z,19.41
2023-12-11T12:26:23.884Z,19.40
2023-12-11T12:27:35.458Z,19.43
2023-12-11T12:28:39.620Z,19.40
2023-12-11T12:29:46.201Z,19.41
2023-12-11T12:30:50.417Z,19.39
2023-12-11T12:31:58.645Z,19.41
2023-12-11T12:33:06.076Z,19.41
2023-12-11T12:34:13.182Z,19.40
2023-12-11T12:35:17.246Z,19.42
2023-12-11T12:36:23.890Z,19.40
2023-12-11T12:37:28.610Z,19.41
2023-12-11T12:38:35.428Z,19.41
2023-12-11T12:39:39.741Z,19.41
2023-12-11T12:40:46.601Z,19.40
2023-12-11T12:41:53.793Z,19.41
2023-12-11T12:43:05.373Z,19.42
2023-12-11T12:44:09.238Z,19.41
2023-12-11T12:45:35.977Z,19.38
2023-12-11T12:46:44.042Z,19.40
2023-12-11T12:47:51.412Z,19.40
2023-12-11T12:48:55.278Z,19.40
2023-12-11T12:50:02.136Z,19.42
2023-12-11T12:51:08.250Z,19.42
2023-12-11T12:52:15.081Z,19.41
2023-12-11T12:53:20.261Z,19.45
2023-12-11T12:54:26.924Z,19.46
2023-12-11T12:55:30.993Z,19.44
2023-12-11T12:56:37.678Z,19.43
2023-12-11T12:57:43.348Z,19.46
2023-12-11T12:58:55.246Z,19.49
2023-12-11T12:59:58.362Z,19.50
2023-12-11T13:01:04.867Z,19.51
2023-12-11T13:02:13.468Z,19.51
2023-12-11T13:03:22.049Z,19.53
2023-12-11T13:04:25.940Z,19.53
2023-12-11T13:05:43.770Z,19.54
2023-12-11T13:06:48.083Z,19.57
2023-12-11T13:08:03.391Z,19.57
2023-12-11T13:09:09.933Z,19.58
2023-12-11T13:10:19.975Z,19.58
2023-12-11T13:11:39.241Z,19.56
2023-12-11T13:12:45.671Z,19.57
2023-12-11T13:13:58.681Z,19.56
2023-12-11T13:15:05.106Z,19.58
2023-12-11T13:16:09.697Z,19.57
2023-12-11T13:17:16.357Z,19.59
2023-12-11T13:18:20.517Z,19.59
2023-12-11T13:19:26.155Z,19.60
2023-12-11T13:20:30.245Z,19.58
2023-12-11T13:21:37.301Z,19.58
2023-12-11T13:22:41.589Z,19.59
2023-12-11T13:23:48.054Z,19.59
2023-12-11T13:24:53.345Z,19.58
2023-12-11T13:25:59.793Z,19.61
2023-12-11T13:27:03.717Z,19.62
2023-12-11T13:28:10.319Z,19.61
2023-12-11T13:29:16.699Z,19.57
2023-12-11T13:30:23.746Z,19.58
2023-12-11T13:31:28.040Z,19.58
2023-12-11T13:32:31.968Z,19.60
2023-12-11T13:33:38.346Z,19.57
2023-12-11T13:34:42.580Z,19.57
2023-12-11T13:35:49.680Z,19.57
2023-12-11T13:36:53.549Z,19.58
2023-12-11T13:37:59.916Z,19.59
2023-12-11T13:39:03.725Z,19.61
2023-12-11T13:40:12.757Z,19.59
2023-12-11T13:41:16.830Z,19.59
2023-12-11T13:42:23.142Z,19.58
2023-12-11T13:43:26.996Z,19.60
2023-12-11T13:44:36.082Z,19.61
2023-12-11T13:45:40.776Z,19.59
2023-12-11T13:46:47.793Z,19.62
2023-12-11T13:47:51.628Z,19.62
2023-12-11T13:48:58.167Z,19.59
2023-12-11T13:50:01.403Z,19.61
2023-12-11T13:51:09.833Z,19.63
2023-12-11T13:52:13.702Z,19.62
2023-12-11T13:53:20.101Z,19.62
2023-12-11T13:54:24.489Z,19.60
2023-12-11T13:55:30.926Z,19.58
2023-12-11T13:56:34.836Z,19.60
2023-12-11T13:57:41.250Z,19.63
2023-12-11T13:58:45.041Z,19.61
2023-12-11T13:59:54.187Z,19.60
2023-12-11T14:00:58.207Z,19.61
2023-12-11T14:02:04.823Z,19.59
2023-12-11T14:03:09.009Z,19.63
2023-12-11T14:04:17.392Z,19.64
2023-12-11T14:05:20.862Z,19.63
2023-12-11T14:06:27.365Z,19.65
2023-12-11T14:07:32.333Z,19.62
2023-12-11T14:08:38.206Z,19.62
2023-12-11T14:09:42.137Z,19.64
2023-12-11T14:10:49.057Z,19.62
2023-12-11T14:11:55.046Z,19.62
2023-12-11T14:13:01.241Z,19.58
2023-12-11T14:14:04.411Z,19.59
2023-12-11T14:15:14.117Z,19.60
2023-12-11T14:16:17.964Z,19.61
2023-12-11T14:17:24.474Z,19.61
2023-12-11T14:18:31.470Z,19.61
2023-12-11T14:19:38.869Z,19.60
2023-12-11T14:20:43.587Z,19.60
2023-12-11T14:21:50.090Z,19.58